WetterOnline ( https://www.wetteronline.de )

Wetter aktuell Greifswalder Bodden

Aktuelles Wetter: Greifswalder Oie (12m)

6-stündlich | Neueste Meldungen
Ortszeit Temperatur Wetter
Fr, 30.07. 14:00 21.5° C leicht bewölkt
Fr, 30.07. 8:00 17.2° C wolkenlos
Fr, 30.07. 2:00 17.3° C wolkenlos
Do, 29.07. 20:00 20.1° C bewölkt
Do, 29.07. 14:00 22.2° C leicht bewölkt
Do, 29.07. 8:00 19.0° C wolkenlos
Do, 29.07. 2:00 19.7° C bedeckt
Mi, 28.07. 20:00 24.5° C wolkig
Ortszeit Temperatur Wetter
Fr, 30.07. 18:00 22.8° C fast wolkenlos
Fr, 30.07. 17:50 22.8° C fast wolkenlos
Fr, 30.07. 17:40 22.6° C wolkenlos
Fr, 30.07. 17:30 22.8° C fast wolkenlos
Fr, 30.07. 17:20 22.8° C fast wolkenlos
Fr, 30.07. 17:10 23.4° C fast wolkenlos
Fr, 30.07. 17:00 23.2° C fast wolkenlos
Fr, 30.07. 16:30 23.0° C wolkenlos
Fr, 30.07. 16:00 23.0° C fast wolkenlos
Fr, 30.07. 15:30 22.8° C leicht bewölkt
Fr, 30.07. 15:00 22.6° C fast wolkenlos
Ortszeit Relative Feuchte Sichtweite
Fr, 30.07. 14:00 56% 50 km
Fr, 30.07. 8:00 72% 35 km
Fr, 30.07. 2:00 72% 45 km
Do, 29.07. 20:00 55% 55 km
Do, 29.07. 14:00 50% 45 km
Do, 29.07. 8:00 75% 40 km
Do, 29.07. 2:00 79% 45 km
Mi, 28.07. 20:00 61% 55 km
Ortszeit Relative Feuchte Sichtweite
Fr, 30.07. 18:00 56% 45 km
Fr, 30.07. 17:50 56% -
Fr, 30.07. 17:40 54% -
Fr, 30.07. 17:30 59% 45 km
Fr, 30.07. 17:20 59% -
Fr, 30.07. 17:10 55% -
Fr, 30.07. 17:00 52% 55 km
Fr, 30.07. 16:30 55% >70 km
Fr, 30.07. 16:00 51% 40 km
Fr, 30.07. 15:30 51% 60 km
Fr, 30.07. 15:00 53% 55 km
Ortszeit Niederschlagsmenge Niederschlagsart
Fr, 30.07. 14:00 0.0 l/m2 in 6 Std. -
Fr, 30.07. 8:00 0.0 l/m2 in 12 Std. -
Fr, 30.07. 2:00 0.0 l/m2 in 6 Std. -
Do, 29.07. 20:00 0.1 l/m2 in 12 Std. Regen
Do, 29.07. 14:00 0.0 l/m2 in 6 Std. -
Do, 29.07. 8:00 0.1 l/m2 in 12 Std. -
Do, 29.07. 2:00 0.1 l/m2 in 6 Std. Niederschlag
Mi, 28.07. 20:00 0.0 l/m2 in 3 Std. -
Ortszeit Niederschlagsmenge Niederschlagsart
Fr, 30.07. 18:00 0.0 l/m2 in 1 Std. -
Fr, 30.07. 17:50 keine Meldung -
Fr, 30.07. 17:40 keine Meldung -
Fr, 30.07. 17:30 0.0 l/m2 in 1 Std. -
Fr, 30.07. 17:20 keine Meldung -
Fr, 30.07. 17:10 keine Meldung -
Fr, 30.07. 17:00 0.0 l/m2 in 1 Std. -
Fr, 30.07. 16:30 0.0 l/m2 in 1 Std. -
Fr, 30.07. 16:00 0.0 l/m2 in 1 Std. -
Fr, 30.07. 15:30 0.0 l/m2 in 1 Std. -
Fr, 30.07. 15:00 0.0 l/m2 in 1 Std. -
Ortszeit Stärke Spitze Richtung
km/h Bft. km/h Grad Sektor
Fr, 30.07. 14:00 41 6 63 250° W
Fr, 30.07. 8:00 47 6 58 230° SW
Fr, 30.07. 2:00 36 5 50 230° SW
Do, 29.07. 20:00 41 6 65 260° W
Do, 29.07. 14:00 47 6 68 230° SW
Do, 29.07. 8:00 31 5 46 220° SW
Do, 29.07. 2:00 32 5 54 230° SW
Mi, 28.07. 20:00 17 3 39 240° SW
Ortszeit Stärke Spitze Richtung
km/h Bft. km/h Grad Sektor
Fr, 30.07. 18:00 25 4 40 270° W
Fr, 30.07. 17:50 25 4 - 270° W
Fr, 30.07. 17:40 29 5 - 260° W
Fr, 30.07. 17:30 30 5 37 260° W
Fr, 30.07. 17:20 30 5 - 260° W
Fr, 30.07. 17:10 29 5 - 250° W
Fr, 30.07. 17:00 32 5 43 250° W
Fr, 30.07. 16:30 35 5 44 250° W
Fr, 30.07. 16:00 35 5 48 260° W
Fr, 30.07. 15:30 40 6 50 250° W
Fr, 30.07. 15:00 35 5 54 250° W
Ortszeit Untergrenze Bedeckung Gattung
total tief tief mittel hoch
Fr, 30.07. 14:00 1800 m 2/8 2/8 - - -
Fr, 30.07. 8:00 - 0/8 0/8 - - -
Fr, 30.07. 2:00 - 0/8 0/8 - - -
Do, 29.07. 20:00 2700 m 8/8 7/8 - - -
Do, 29.07. 14:00 2700 m 3/8 1/8 - - -
Do, 29.07. 8:00 - 0/8 0/8 - - -
Do, 29.07. 2:00 2100 m 8/8 8/8 - - -
Mi, 28.07. 20:00 1500 m 6/8 3/8 - - -
Ortszeit Bedeckungsgrad in Achtel und Wolkenuntergrenze
Fr, 30.07. 18:00 1(1800m)
Fr, 30.07. 17:50 1(1800m)
Fr, 30.07. 17:40 keine Wolken
Fr, 30.07. 17:30 1(9000m)
Fr, 30.07. 17:20 1(9000m)
Fr, 30.07. 17:10 1(9000m)
Fr, 30.07. 17:00 1(9000m)
Fr, 30.07. 16:30 keine Wolken
Fr, 30.07. 16:00 1(1800m)
Fr, 30.07. 15:30 2(1800m)
Fr, 30.07. 15:00 1(1800m)
Ortszeit Luftdruck NN (hPa) Tendenz (hPa in 3 Std.)
Fr, 30.07. 14:00 1006 - 0,2
Fr, 30.07. 8:00 1006 - 0,4
Fr, 30.07. 2:00 1007 - 0,9
Do, 29.07. 20:00 1008 + 0,6
Do, 29.07. 14:00 1007 - 0,1
Do, 29.07. 8:00 1008 - 0,2
Do, 29.07. 2:00 1008 - 0,4
Mi, 28.07. 20:00 1008 - 0,6
Ortszeit Luftdruck NN (hPa) Tendenz (hPa in 3 Std.)
Fr, 30.07. 18:00 1005 - 0,3
Fr, 30.07. 17:50 1005 keine Meldung
Fr, 30.07. 17:40 1005 keine Meldung
Fr, 30.07. 17:30 1005 - 0,4
Fr, 30.07. 17:20 1005 keine Meldung
Fr, 30.07. 17:10 1005 keine Meldung
Fr, 30.07. 17:00 1005 - 0,5
Fr, 30.07. 16:30 1006 - 0,4
Fr, 30.07. 16:00 1006 - 0,3
Fr, 30.07. 15:30 1006 - 0,4
Fr, 30.07. 15:00 1006 - 0,5
Ortszeit Schneehöhe (cm)
Fr, 30.07. 14:00 -
Fr, 30.07. 8:00 -
Fr, 30.07. 2:00 -
Do, 29.07. 20:00 -
Do, 29.07. 14:00 -
Do, 29.07. 8:00 -
Do, 29.07. 2:00 -
Mi, 28.07. 20:00 -
Ortszeit Schneehöhe (cm)
Fr, 30.07. 18:00 -
Fr, 30.07. 17:50 -
Fr, 30.07. 17:40 -
Fr, 30.07. 17:30 -
Fr, 30.07. 17:20 -
Fr, 30.07. 17:10 -
Fr, 30.07. 17:00 -
Fr, 30.07. 16:30 -
Fr, 30.07. 16:00 -
Fr, 30.07. 15:30 -
Fr, 30.07. 15:00 -
Link zu dieser Seite / Seite empfehlen

Das Wetter in ...